createdAt,value
2018-06-15T00:00:28.678Z,60.50
2018-06-15T00:01:30.851Z,60.90
2018-06-15T00:02:33.918Z,60.90
2018-06-15T00:03:36.150Z,60.80
2018-06-15T00:04:38.310Z,60.80
2018-06-15T00:05:40.523Z,60.80
2018-06-15T00:07:44.924Z,60.80
2018-06-15T00:08:47.108Z,60.70
2018-06-15T00:09:49.307Z,60.70
2018-06-15T00:11:53.774Z,60.70
2018-06-15T00:12:56.055Z,60.60
2018-06-15T00:13:58.286Z,60.70
2018-06-15T00:15:00.486Z,60.30
2018-06-15T00:16:02.703Z,60.40
2018-06-15T00:17:04.917Z,60.70
2018-06-15T00:18:07.159Z,60.70
2018-06-15T00:19:09.353Z,60.60
2018-06-15T00:20:11.533Z,60.70
2018-06-15T00:21:13.730Z,60.80
2018-06-15T00:22:15.897Z,60.70
2018-06-15T00:23:18.322Z,60.70
2018-06-15T00:24:20.522Z,60.70
2018-06-15T00:25:22.773Z,60.70
2018-06-15T00:26:24.955Z,60.70
2018-06-15T00:28:29.369Z,60.70
2018-06-15T00:29:31.558Z,60.60
2018-06-15T00:30:33.766Z,60.60
2018-06-15T00:31:35.935Z,61.50
2018-06-15T00:32:38.127Z,60.70
2018-06-15T00:33:40.286Z,60.70
2018-06-15T00:34:42.516Z,60.70
2018-06-15T00:35:44.734Z,60.70
2018-06-15T00:36:46.921Z,60.70
2018-06-15T00:37:49.144Z,60.70
2018-06-15T00:38:51.390Z,60.70
2018-06-15T00:39:53.598Z,61.50
2018-06-15T00:40:56.384Z,60.80
2018-06-15T00:41:58.563Z,60.80
2018-06-15T00:43:00.807Z,60.80
2018-06-15T00:44:02.990Z,60.80
2018-06-15T00:45:05.219Z,60.80
2018-06-15T00:46:07.390Z,61.20
2018-06-15T00:47:09.599Z,61.10
2018-06-15T00:48:11.790Z,61.30
2018-06-15T00:49:13.995Z,61.30
2018-06-15T00:50:16.194Z,61.30
2018-06-15T00:51:18.426Z,61.40
2018-06-15T00:52:20.699Z,61.50
2018-06-15T00:53:22.943Z,61.70
2018-06-15T00:54:25.126Z,61.90
2018-06-15T00:55:27.313Z,62.40
2018-06-15T00:56:29.990Z,62.50
2018-06-15T00:57:46.237Z,62.20
2018-06-15T00:58:48.407Z,62.10
2018-06-15T00:59:50.577Z,62.00
2018-06-15T01:00:52.797Z,61.70
2018-06-15T01:02:57.203Z,61.70
2018-06-15T01:03:59.398Z,61.90
2018-06-15T01:05:01.571Z,62.10
2018-06-15T01:06:03.814Z,61.80
2018-06-15T01:07:05.999Z,61.80
2018-06-15T01:08:08.198Z,62.00
2018-06-15T01:09:10.393Z,61.90
2018-06-15T01:10:12.630Z,61.90
2018-06-15T01:11:14.849Z,61.90
2018-06-15T01:12:17.041Z,62.80
2018-06-15T01:13:19.218Z,62.20
2018-06-15T01:14:21.445Z,62.30
2018-06-15T01:15:23.623Z,62.40
2018-06-15T01:16:25.781Z,62.90
2018-06-15T01:18:30.194Z,62.90
2018-06-15T01:19:32.454Z,63.10
2018-06-15T01:20:34.711Z,63.10
2018-06-15T01:21:36.984Z,63.30
2018-06-15T01:22:39.143Z,63.30
2018-06-15T01:23:41.331Z,63.20
2018-06-15T01:24:43.531Z,63.40
2018-06-15T01:25:45.861Z,63.30
2018-06-15T01:26:48.062Z,63.20
2018-06-15T01:27:50.274Z,63.20
2018-06-15T01:28:52.480Z,63.20
2018-06-15T01:29:54.684Z,63.20
2018-06-15T01:30:56.858Z,63.00
2018-06-15T01:31:59.059Z,63.00
2018-06-15T01:34:03.482Z,63.30
2018-06-15T01:35:05.685Z,63.20
2018-06-15T01:36:07.885Z,63.30
2018-06-15T01:38:12.319Z,63.20
2018-06-15T01:39:14.510Z,63.20
2018-06-15T01:40:16.706Z,63.40
2018-06-15T01:41:18.897Z,63.40
2018-06-15T01:42:21.115Z,63.20
2018-06-15T01:43:23.362Z,63.40
2018-06-15T01:44:25.584Z,63.50
2018-06-15T01:45:27.787Z,63.70
2018-06-15T01:46:29.982Z,63.80
2018-06-15T01:47:32.162Z,63.90
2018-06-15T01:48:34.357Z,64.00
2018-06-15T01:49:36.562Z,64.00
2018-06-15T01:50:38.766Z,64.00
2018-06-15T01:51:40.978Z,63.90
2018-06-15T01:52:43.197Z,64.10
2018-06-15T01:53:45.507Z,64.50
2018-06-15T01:54:47.710Z,64.50
2018-06-15T01:55:49.918Z,65.00
2018-06-15T01:56:52.110Z,65.00
2018-06-15T01:57:54.282Z,65.80
2018-06-15T01:58:56.478Z,65.00
2018-06-15T02:01:01.013Z,65.00
2018-06-15T02:02:03.234Z,65.20
2018-06-15T02:03:05.444Z,65.20
2018-06-15T02:04:07.822Z,65.30
2018-06-15T02:05:10.163Z,65.40
2018-06-15T02:06:12.357Z,65.40
2018-06-15T02:07:14.578Z,65.50
2018-06-15T02:08:16.788Z,65.70
2018-06-15T02:09:19.018Z,65.20
2018-06-15T02:10:21.255Z,65.50
2018-06-15T02:11:25.033Z,65.60
2018-06-15T02:12:27.234Z,65.70
2018-06-15T02:13:29.547Z,65.50
2018-06-15T02:14:31.728Z,65.90
2018-06-15T02:15:33.946Z,65.80
2018-06-15T02:16:36.186Z,65.70
2018-06-15T02:17:38.404Z,65.80
2018-06-15T02:18:40.646Z,65.90
2018-06-15T02:19:42.874Z,65.80
2018-06-15T02:20:45.096Z,65.80
2018-06-15T02:21:47.326Z,65.70
2018-06-15T02:22:49.603Z,65.80
2018-06-15T02:23:51.831Z,65.80
2018-06-15T02:24:54.050Z,65.80
2018-06-15T02:25:56.258Z,66.20
2018-06-15T02:26:58.479Z,66.00
2018-06-15T02:28:00.704Z,66.10
2018-06-15T02:29:02.970Z,66.10
2018-06-15T02:30:05.243Z,66.10
2018-06-15T02:31:07.455Z,65.90
2018-06-15T02:32:09.666Z,65.80
2018-06-15T02:33:12.038Z,66.00
2018-06-15T02:34:14.256Z,66.10
2018-06-15T02:35:16.458Z,66.70
2018-06-15T02:36:18.670Z,66.60
2018-06-15T02:37:20.904Z,66.90
2018-06-15T02:38:23.105Z,66.80
2018-06-15T02:39:25.312Z,66.80
2018-06-15T02:40:27.535Z,66.60
2018-06-15T02:41:29.753Z,67.50
2018-06-15T02:42:32.083Z,66.50
2018-06-15T02:43:34.298Z,66.30
2018-06-15T02:44:36.502Z,66.30
2018-06-15T02:45:38.734Z,66.10
2018-06-15T02:47:43.170Z,65.80
2018-06-15T02:48:45.399Z,65.70
2018-06-15T02:49:47.598Z,66.50
2018-06-15T02:50:49.825Z,65.80
2018-06-15T02:51:52.098Z,65.80
2018-06-15T02:52:54.342Z,65.90
2018-06-15T02:53:56.551Z,66.10
2018-06-15T02:54:58.778Z,66.20
2018-06-15T02:56:01.063Z,66.10
2018-06-15T02:57:03.286Z,66.30
2018-06-15T02:58:05.506Z,66.70
2018-06-15T02:59:07.691Z,66.50
2018-06-15T03:00:09.927Z,66.30
2018-06-15T03:01:12.194Z,66.10
2018-06-15T03:02:14.410Z,66.00
2018-06-15T03:03:16.661Z,66.00
2018-06-15T03:04:18.900Z,65.90
2018-06-15T03:05:21.100Z,66.00
2018-06-15T03:06:23.741Z,65.90
2018-06-15T03:07:25.951Z,66.00
2018-06-15T03:09:30.453Z,65.90
2018-06-15T03:10:32.678Z,65.90
2018-06-15T03:11:34.918Z,65.70
2018-06-15T03:12:37.106Z,65.80
2018-06-15T03:13:39.318Z,65.90
2018-06-15T03:14:41.549Z,65.90
2018-06-15T03:16:46.046Z,66.20
2018-06-15T03:17:48.282Z,66.20
2018-06-15T03:18:50.490Z,66.20
2018-06-15T03:19:52.678Z,66.50
2018-06-15T03:20:54.850Z,66.30
2018-06-15T03:21:57.070Z,66.40
2018-06-15T03:22:59.268Z,66.50
2018-06-15T03:24:01.490Z,66.50
2018-06-15T03:25:03.789Z,66.40
2018-06-15T03:26:06.010Z,66.20
2018-06-15T03:28:10.465Z,66.30
2018-06-15T03:29:12.670Z,66.40
2018-06-15T03:30:14.871Z,66.20
2018-06-15T03:31:17.088Z,66.20
2018-06-15T03:32:19.359Z,66.20
2018-06-15T03:33:21.571Z,66.20
2018-06-15T03:34:23.765Z,66.30
2018-06-15T03:35:25.955Z,66.20
2018-06-15T03:36:28.195Z,66.10
2018-06-15T03:37:30.430Z,66.20
2018-06-15T03:38:32.637Z,66.30
2018-06-15T03:39:34.833Z,66.50
2018-06-15T03:40:37.018Z,66.80
2018-06-15T03:41:39.249Z,66.90
2018-06-15T03:42:41.440Z,67.00
2018-06-15T03:43:43.705Z,67.00
2018-06-15T03:45:48.256Z,66.80
2018-06-15T03:46:50.483Z,67.80
2018-06-15T03:48:54.919Z,67.30
2018-06-15T03:49:57.124Z,67.10
2018-06-15T03:50:59.322Z,67.00
2018-06-15T03:53:03.842Z,67.90
2018-06-15T03:54:06.066Z,67.30
2018-06-15T03:55:08.289Z,66.90
2018-06-15T03:56:10.503Z,66.50
2018-06-15T03:58:14.957Z,66.90
2018-06-15T03:59:17.188Z,66.80
2018-06-15T04:00:19.419Z,66.60
2018-06-15T04:01:21.698Z,66.30
2018-06-15T04:02:23.930Z,66.30
2018-06-15T04:03:26.153Z,66.60
2018-06-15T04:04:28.363Z,66.40
2018-06-15T04:05:30.550Z,66.60
2018-06-15T04:07:35.090Z,66.60
2018-06-15T04:08:37.297Z,66.60
2018-06-15T04:09:39.515Z,66.80
2018-06-15T04:10:41.730Z,66.70
2018-06-15T04:11:43.946Z,66.70
2018-06-15T04:12:46.167Z,66.90
2018-06-15T04:14:50.623Z,67.00
2018-06-15T04:15:52.823Z,66.90
2018-06-15T04:16:55.162Z,66.90
2018-06-15T04:18:05.390Z,67.00
2018-06-15T04:19:07.612Z,66.70
2018-06-15T04:20:09.830Z,66.40
2018-06-15T04:21:12.035Z,66.50
2018-06-15T04:22:14.254Z,66.40
2018-06-15T04:23:16.449Z,66.40
2018-06-15T04:24:18.689Z,66.50
2018-06-15T04:25:20.893Z,66.60
2018-06-15T04:26:23.155Z,66.80
2018-06-15T04:27:25.386Z,66.80
2018-06-15T04:28:27.686Z,66.80
2018-06-15T04:29:29.947Z,67.00
2018-06-15T04:30:32.159Z,66.80
2018-06-15T04:32:36.600Z,66.90
2018-06-15T04:33:38.786Z,66.90
2018-06-15T04:34:40.989Z,66.80
2018-06-15T04:36:45.450Z,67.50
2018-06-15T04:37:47.727Z,66.90
2018-06-15T04:38:49.967Z,67.20
2018-06-15T04:39:52.178Z,67.10
2018-06-15T04:41:56.638Z,67.40
2018-06-15T04:42:58.866Z,67.50
2018-06-15T04:44:01.099Z,67.50
2018-06-15T04:45:03.352Z,67.80
2018-06-15T04:46:05.578Z,67.80
2018-06-15T04:47:07.813Z,68.10
2018-06-15T04:48:10.243Z,68.30
2018-06-15T04:49:12.455Z,68.30
2018-06-15T04:50:14.670Z,68.30
2018-06-15T04:51:16.892Z,68.80
2018-06-15T04:52:19.170Z,68.80
2018-06-15T04:53:21.450Z,68.70
2018-06-15T04:54:23.748Z,68.90
2018-06-15T04:55:26.035Z,68.70
2018-06-15T04:56:28.320Z,68.60
2018-06-15T04:57:30.714Z,68.50
2018-06-15T04:58:32.985Z,69.10
2018-06-15T04:59:35.267Z,68.60
2018-06-15T05:00:37.503Z,68.40
2018-06-15T05:01:39.795Z,68.40
2018-06-15T05:02:42.057Z,68.10
2018-06-15T05:03:44.294Z,68.00
2018-06-15T05:05:49.582Z,68.60
2018-06-15T05:06:51.798Z,68.40
2018-06-15T05:07:54.060Z,68.70
2018-06-15T05:08:56.269Z,68.10
2018-06-15T05:09:58.519Z,67.60
2018-06-15T05:11:00.820Z,68.20
2018-06-15T05:12:03.148Z,68.20
2018-06-15T05:13:05.482Z,68.20
2018-06-15T05:14:07.843Z,67.90
2018-06-15T05:15:10.138Z,68.00
2018-06-15T05:16:12.604Z,68.20
2018-06-15T05:17:14.957Z,68.40
2018-06-15T05:18:17.306Z,68.50
2018-06-15T05:19:19.569Z,68.70
2018-06-15T05:20:21.898Z,69.10
2018-06-15T05:21:24.262Z,68.80
2018-06-15T05:22:26.553Z,69.10
2018-06-15T05:23:28.862Z,69.20
2018-06-15T05:24:31.114Z,69.10
2018-06-15T05:25:33.378Z,69.10
2018-06-15T05:26:35.669Z,68.90
2018-06-15T05:27:37.987Z,68.30
2018-06-15T05:28:40.272Z,67.90
2018-06-15T05:29:43.415Z,67.70
2018-06-15T05:31:48.058Z,68.00
2018-06-15T05:32:50.299Z,68.40
2018-06-15T05:33:52.982Z,68.00
2018-06-15T05:34:55.290Z,67.60
2018-06-15T05:35:57.849Z,67.50
2018-06-15T05:37:00.195Z,67.50
2018-06-15T05:38:02.533Z,67.50
2018-06-15T05:39:07.011Z,67.10
2018-06-15T05:40:09.310Z,67.10
2018-06-15T05:41:11.587Z,67.10
2018-06-15T05:42:13.890Z,67.00
2018-06-15T05:43:16.183Z,67.30
2018-06-15T05:44:18.588Z,67.20
2018-06-15T05:45:20.958Z,67.40
2018-06-15T05:46:23.212Z,67.50
2018-06-15T05:47:25.551Z,67.20
2018-06-15T05:48:27.860Z,67.60
2018-06-15T05:49:30.184Z,67.50
2018-06-15T05:50:32.486Z,67.40
2018-06-15T05:51:34.775Z,67.10
2018-06-15T05:52:37.310Z,67.10
2018-06-15T05:53:39.572Z,67.20
2018-06-15T05:54:42.500Z,67.30
2018-06-15T05:55:44.925Z,67.30
2018-06-15T05:56:47.131Z,66.90
2018-06-15T05:57:49.398Z,66.70
2018-06-15T05:58:51.654Z,66.50
2018-06-15T05:59:54.022Z,66.50
2018-06-15T06:00:56.351Z,66.80
2018-06-15T06:01:58.643Z,66.90
2018-06-15T06:03:00.915Z,67.10
2018-06-15T06:04:03.304Z,67.20
2018-06-15T06:06:07.791Z,67.30
2018-06-15T06:07:10.126Z,67.10
2018-06-15T06:08:12.422Z,67.10
2018-06-15T06:09:14.725Z,67.20
2018-06-15T06:11:19.370Z,67.40
2018-06-15T06:12:21.702Z,67.10
2018-06-15T06:13:23.957Z,67.00
2018-06-15T06:14:26.370Z,66.70
2018-06-15T06:15:28.660Z,66.70
2018-06-15T06:16:31.022Z,66.80
2018-06-15T06:17:33.290Z,66.60
2018-06-15T06:18:35.547Z,66.50
2018-06-15T06:19:37.806Z,66.00
2018-06-15T06:20:40.099Z,66.10
2018-06-15T06:22:44.679Z,66.10
2018-06-15T06:23:47.045Z,66.10
2018-06-15T06:24:49.443Z,65.40
2018-06-15T06:25:51.734Z,65.70
2018-06-15T06:26:54.064Z,65.70
2018-06-15T06:27:56.279Z,65.40
2018-06-15T06:28:58.598Z,65.80
2018-06-15T06:30:00.999Z,65.80
2018-06-15T06:31:03.343Z,65.60
2018-06-15T06:32:05.603Z,65.60
2018-06-15T06:33:07.890Z,65.30
2018-06-15T06:34:10.135Z,65.20
2018-06-15T06:35:12.446Z,65.10
2018-06-15T06:36:14.767Z,65.10
2018-06-15T06:37:17.146Z,65.00
2018-06-15T06:38:19.438Z,65.10
2018-06-15T06:39:21.714Z,65.20
2018-06-15T06:40:24.010Z,66.00
2018-06-15T06:41:26.271Z,65.20
2018-06-15T06:42:28.566Z,65.20
2018-06-15T06:43:30.922Z,65.10
2018-06-15T06:44:33.246Z,66.20
2018-06-15T06:45:35.548Z,64.80
2018-06-15T06:47:41.159Z,64.10
2018-06-15T06:48:44.498Z,64.10
2018-06-15T06:49:46.880Z,64.00
2018-06-15T06:50:49.234Z,64.10
2018-06-15T06:51:51.630Z,64.10
2018-06-15T06:52:53.966Z,63.70
2018-06-15T06:53:56.353Z,63.70
2018-06-15T06:54:58.698Z,63.90
2018-06-15T06:56:01.029Z,63.30
2018-06-15T06:57:03.380Z,63.30
2018-06-15T06:58:05.698Z,63.10
2018-06-15T06:59:08.010Z,62.90
2018-06-15T07:00:10.360Z,63.00
2018-06-15T07:01:12.686Z,63.30
2018-06-15T07:02:15.016Z,63.30
2018-06-15T07:03:17.378Z,63.30
2018-06-15T07:04:19.672Z,62.90
2018-06-15T07:05:21.987Z,62.90
2018-06-15T07:06:24.491Z,62.80
2018-06-15T07:07:26.790Z,62.70
2018-06-15T07:08:29.094Z,62.90
2018-06-15T07:09:31.406Z,62.60
2018-06-15T07:11:36.764Z,62.70
2018-06-15T07:13:41.417Z,63.00
2018-06-15T07:14:43.722Z,62.50
2018-06-15T07:15:46.022Z,62.00
2018-06-15T07:16:48.301Z,62.10
2018-06-15T07:17:50.591Z,62.30
2018-06-15T07:18:52.881Z,62.10
2018-06-15T07:19:55.183Z,61.50
2018-06-15T07:20:57.560Z,62.00
2018-06-15T07:21:59.878Z,61.50
2018-06-15T07:23:02.131Z,61.60
2018-06-15T07:24:04.545Z,62.40
2018-06-15T07:25:06.817Z,61.70
2018-06-15T07:26:09.166Z,61.70
2018-06-15T07:27:11.510Z,61.80
2018-06-15T07:28:13.836Z,62.30
2018-06-15T07:29:16.180Z,61.40
2018-06-15T07:30:18.526Z,61.10
2018-06-15T07:31:20.830Z,61.00
2018-06-15T07:32:23.131Z,61.40
2018-06-15T07:33:25.560Z,61.80
2018-06-15T07:34:27.843Z,61.90
2018-06-15T07:35:30.127Z,61.20
2018-06-15T07:36:32.487Z,61.30
2018-06-15T07:37:34.862Z,61.20
2018-06-15T07:38:37.307Z,61.30
2018-06-15T07:39:39.577Z,61.20
2018-06-15T07:40:41.883Z,61.20
2018-06-15T07:41:44.231Z,60.60
2018-06-15T07:42:46.606Z,60.90
2018-06-15T07:43:48.918Z,60.80
2018-06-15T07:44:51.243Z,60.60
2018-06-15T07:45:53.624Z,60.40
2018-06-15T07:46:56.035Z,60.20
2018-06-15T07:47:58.366Z,60.10
2018-06-15T07:49:00.593Z,59.90
2018-06-15T07:50:02.966Z,59.40
2018-06-15T07:51:05.298Z,59.80
2018-06-15T07:53:09.876Z,59.10
2018-06-15T07:54:12.182Z,59.40
2018-06-15T07:55:14.498Z,59.20
2018-06-15T07:56:16.801Z,59.00
2018-06-15T07:58:21.499Z,58.80
2018-06-15T07:59:23.831Z,58.20
2018-06-15T08:00:26.211Z,58.30
2018-06-15T08:01:28.526Z,58.20
2018-06-15T08:02:30.846Z,58.50
2018-06-15T08:03:33.118Z,58.20
2018-06-15T08:04:35.440Z,58.60
2018-06-15T08:05:37.722Z,58.60
2018-06-15T08:06:40.546Z,58.40
2018-06-15T08:07:42.861Z,58.30
2018-06-15T08:08:45.157Z,58.40
2018-06-15T08:10:49.765Z,57.40
2018-06-15T08:11:52.031Z,57.40
2018-06-15T08:12:54.564Z,57.50
2018-06-15T08:13:57.185Z,57.30
2018-06-15T08:14:59.502Z,57.40
2018-06-15T08:16:01.814Z,57.30
2018-06-15T08:17:04.218Z,57.30
2018-06-15T08:18:06.542Z,57.10
2018-06-15T08:19:08.912Z,57.70
2018-06-15T08:20:11.227Z,58.40
2018-06-15T08:21:13.501Z,58.10
2018-06-15T08:22:15.855Z,58.50
2018-06-15T08:24:20.474Z,57.40
2018-06-15T08:25:22.787Z,57.50
2018-06-15T08:26:25.134Z,57.60
2018-06-15T08:27:27.457Z,57.80
2018-06-15T08:28:29.790Z,57.90
2018-06-15T08:29:32.134Z,57.50
2018-06-15T08:30:34.547Z,57.50
2018-06-15T08:31:36.875Z,57.50
2018-06-15T08:32:39.179Z,57.30
2018-06-15T08:34:43.826Z,56.80
2018-06-15T08:35:46.186Z,56.40
2018-06-15T08:36:48.479Z,56.40
2018-06-15T08:37:50.799Z,56.40
2018-06-15T08:38:53.115Z,56.10
2018-06-15T08:39:55.466Z,56.20
2018-06-15T08:40:57.834Z,56.50
2018-06-15T08:42:00.143Z,56.70
2018-06-15T08:43:02.492Z,56.60
2018-06-15T08:45:07.107Z,55.90
2018-06-15T08:46:09.443Z,55.30
2018-06-15T08:47:11.723Z,55.70
2018-06-15T08:48:14.121Z,55.50
2018-06-15T08:49:16.390Z,55.50
2018-06-15T08:50:18.630Z,55.40
2018-06-15T08:51:21.026Z,55.50
2018-06-15T08:52:23.288Z,55.20
2018-06-15T08:53:25.588Z,55.00
2018-06-15T08:54:27.890Z,54.60
2018-06-15T08:55:30.211Z,55.90
2018-06-15T08:57:34.897Z,54.50
2018-06-15T08:58:37.253Z,54.50
2018-06-15T08:59:39.551Z,54.40
2018-06-15T09:00:41.835Z,54.10
2018-06-15T09:01:44.140Z,54.00
2018-06-15T09:02:46.453Z,53.50
2018-06-15T09:04:51.138Z,53.50
2018-06-15T09:05:53.467Z,53.80
2018-06-15T09:06:55.850Z,54.00
2018-06-15T09:07:58.257Z,54.00
2018-06-15T09:10:02.916Z,54.10
2018-06-15T09:11:05.274Z,53.60
2018-06-15T09:12:07.655Z,52.40
2018-06-15T09:13:09.970Z,52.80
2018-06-15T09:14:12.306Z,53.00
2018-06-15T09:15:14.711Z,53.00
2018-06-15T09:16:17.049Z,52.60
2018-06-15T09:17:19.370Z,53.30
2018-06-15T09:18:21.726Z,54.30
2018-06-15T09:19:24.238Z,53.40
2018-06-15T09:20:26.602Z,53.40
2018-06-15T09:21:28.978Z,53.50
2018-06-15T09:22:31.400Z,52.70
2018-06-15T09:23:33.767Z,53.20
2018-06-15T09:24:36.114Z,52.80
2018-06-15T09:25:38.417Z,53.30
2018-06-15T09:27:44.571Z,53.10
2018-06-15T09:28:46.850Z,52.90
2018-06-15T09:29:49.200Z,51.40
2018-06-15T09:30:51.986Z,52.00
2018-06-15T09:31:54.344Z,52.10
2018-06-15T09:32:56.699Z,52.10
2018-06-15T09:33:58.999Z,52.40
2018-06-15T09:35:01.318Z,52.40
2018-06-15T09:36:03.669Z,52.70
2018-06-15T09:37:06.029Z,53.20
2018-06-15T09:38:08.368Z,53.00
2018-06-15T09:39:11.294Z,51.20
2018-06-15T09:40:13.599Z,50.80
2018-06-15T09:41:15.963Z,50.70
2018-06-15T09:42:18.338Z,49.40
2018-06-15T09:43:20.714Z,49.20
2018-06-15T09:44:23.020Z,50.00
2018-06-15T09:45:25.334Z,50.80
2018-06-15T09:46:27.693Z,50.50
2018-06-15T09:47:30.428Z,51.80
2018-06-15T09:48:32.851Z,50.00
2018-06-15T09:49:35.203Z,49.90
2018-06-15T09:51:40.867Z,51.10
2018-06-15T09:52:43.243Z,50.80
2018-06-15T09:53:45.552Z,50.60
2018-06-15T09:54:48.112Z,50.30
2018-06-15T09:55:50.607Z,50.70
2018-06-15T09:57:55.265Z,51.20
2018-06-15T09:58:57.617Z,50.80
2018-06-15T10:00:00.070Z,50.40
2018-06-15T10:01:09.450Z,50.50
2018-06-15T10:02:11.781Z,50.20
2018-06-15T10:03:14.142Z,50.50
2018-06-15T10:05:18.878Z,50.70
2018-06-15T10:06:21.171Z,50.10
2018-06-15T10:07:23.491Z,50.20
2018-06-15T10:08:25.822Z,50.60
2018-06-15T10:09:28.102Z,48.80
2018-06-15T10:10:30.478Z,48.70
2018-06-15T10:11:32.799Z,49.20
2018-06-15T10:12:35.095Z,49.60
2018-06-15T10:13:37.414Z,50.00
2018-06-15T10:14:39.782Z,49.50
2018-06-15T10:15:42.201Z,49.70
2018-06-15T10:16:44.588Z,48.30
2018-06-15T10:17:46.883Z,48.30
2018-06-15T10:18:49.235Z,47.80
2018-06-15T10:19:51.560Z,47.10
2018-06-15T10:20:54.099Z,47.10
2018-06-15T10:21:56.444Z,47.10
2018-06-15T10:22:58.789Z,47.10
2018-06-15T10:25:03.580Z,48.00
2018-06-15T10:26:05.931Z,48.40
2018-06-15T10:27:08.303Z,48.30
2018-06-15T10:28:10.597Z,47.20
2018-06-15T10:29:13.024Z,47.40
2018-06-15T10:30:15.322Z,47.30
2018-06-15T10:32:20.041Z,47.70
2018-06-15T10:33:22.416Z,47.70
2018-06-15T10:34:24.827Z,47.80
2018-06-15T10:35:27.146Z,47.70
2018-06-15T10:36:29.479Z,48.20
2018-06-15T10:37:31.815Z,47.40
2018-06-15T10:38:34.204Z,47.50
2018-06-15T10:39:36.632Z,47.40
2018-06-15T10:40:38.995Z,47.70
2018-06-15T10:41:41.341Z,47.50
2018-06-15T10:42:43.703Z,47.50
2018-06-15T10:43:46.033Z,47.50
2018-06-15T10:45:50.775Z,48.20
2018-06-15T10:46:53.180Z,47.60
2018-06-15T10:47:55.890Z,46.70
2018-06-15T10:48:58.261Z,47.30
2018-06-15T10:50:00.596Z,48.30
2018-06-15T10:51:02.995Z,47.20
2018-06-15T10:52:05.371Z,47.20
2018-06-15T10:53:07.711Z,47.10
2018-06-15T10:54:16.831Z,47.10
2018-06-15T10:55:19.170Z,47.20
2018-06-15T10:56:21.539Z,47.70
2018-06-15T10:57:23.894Z,47.70
2018-06-15T10:58:26.184Z,48.60
2018-06-15T10:59:28.487Z,47.80
2018-06-15T11:00:30.849Z,47.60
2018-06-15T11:01:33.229Z,47.50
2018-06-15T11:02:35.518Z,46.10
2018-06-15T11:03:37.922Z,45.90
2018-06-15T11:04:40.295Z,45.90
2018-06-15T11:05:42.590Z,45.40
2018-06-15T11:06:44.870Z,45.60
2018-06-15T11:07:47.170Z,45.60
2018-06-15T11:08:49.500Z,46.20
2018-06-15T11:09:51.942Z,46.00
2018-06-15T11:10:54.342Z,45.80
2018-06-15T11:11:56.672Z,46.30
2018-06-15T11:12:58.950Z,46.30
2018-06-15T11:14:01.279Z,46.20
2018-06-15T11:16:07.058Z,45.90
2018-06-15T11:17:09.419Z,45.40
2018-06-15T11:18:11.787Z,45.40
2018-06-15T11:19:14.123Z,45.60
2018-06-15T11:20:16.515Z,45.50
2018-06-15T11:21:18.958Z,45.20
2018-06-15T11:22:21.333Z,45.70
2018-06-15T11:23:23.697Z,44.90
2018-06-15T11:24:26.064Z,44.70
2018-06-15T11:25:28.408Z,43.90
2018-06-15T11:26:30.724Z,45.20
2018-06-15T11:27:33.077Z,45.20
2018-06-15T11:28:35.394Z,46.10
2018-06-15T11:29:37.720Z,45.20
2018-06-15T11:30:40.088Z,44.90
2018-06-15T11:31:42.407Z,44.20
2018-06-15T11:32:44.750Z,44.80
2018-06-15T11:33:47.046Z,44.00
2018-06-15T11:34:49.332Z,44.20
2018-06-15T11:35:51.676Z,44.00
2018-06-15T11:36:54.039Z,43.90
2018-06-15T11:37:56.355Z,43.70
2018-06-15T11:38:58.708Z,44.10
2018-06-15T11:40:01.124Z,43.60
2018-06-15T11:41:03.540Z,44.10
2018-06-15T11:42:05.858Z,44.10
2018-06-15T11:43:08.154Z,44.20
2018-06-15T11:44:10.499Z,43.10
2018-06-15T11:45:12.846Z,44.20
2018-06-15T11:46:15.165Z,44.20
2018-06-15T11:47:17.515Z,44.20
2018-06-15T11:48:19.838Z,43.60
2018-06-15T11:49:22.433Z,42.70
2018-06-15T11:50:24.767Z,42.90
2018-06-15T11:51:27.108Z,43.50
2018-06-15T11:52:29.447Z,43.90
2018-06-15T11:53:31.805Z,43.20
2018-06-15T11:54:34.217Z,43.30
2018-06-15T11:55:36.635Z,42.70
2018-06-15T11:56:38.980Z,43.10
2018-06-15T11:57:41.370Z,43.20
2018-06-15T11:58:43.735Z,43.40
2018-06-15T11:59:46.083Z,43.20
2018-06-15T12:00:48.440Z,42.00
2018-06-15T12:01:51.506Z,40.70
2018-06-15T12:02:53.804Z,40.80
2018-06-15T12:03:56.151Z,41.40
2018-06-15T12:04:58.555Z,41.70
2018-06-15T12:06:00.900Z,40.50
2018-06-15T12:07:03.228Z,41.80
2018-06-15T12:08:05.847Z,41.90
2018-06-15T12:09:09.028Z,41.40
2018-06-15T12:10:11.406Z,42.20
2018-06-15T12:11:13.820Z,41.50
2018-06-15T12:12:16.139Z,41.20
2018-06-15T12:13:18.503Z,41.40
2018-06-15T12:14:20.918Z,41.30
2018-06-15T12:15:23.264Z,41.70
2018-06-15T12:16:25.578Z,41.60
2018-06-15T12:17:27.951Z,41.00
2018-06-15T12:18:30.258Z,41.80
2018-06-15T12:19:32.619Z,42.50
2018-06-15T12:20:34.946Z,41.40
2018-06-15T12:21:37.255Z,42.30
2018-06-15T12:22:39.576Z,42.70
2018-06-15T12:23:41.944Z,42.30
2018-06-15T12:24:44.355Z,42.00
2018-06-15T12:25:46.675Z,41.80
2018-06-15T12:26:49.037Z,41.80
2018-06-15T12:27:51.323Z,42.00
2018-06-15T12:28:54.449Z,41.80
2018-06-15T12:32:01.483Z,41.40
2018-06-15T12:33:03.787Z,41.10
2018-06-15T12:34:06.094Z,41.50
2018-06-15T12:35:08.432Z,41.30
2018-06-15T12:36:10.763Z,41.30
2018-06-15T12:37:13.110Z,41.20
2018-06-15T12:38:15.428Z,40.40
2018-06-15T12:39:17.762Z,40.70
2018-06-15T12:41:22.411Z,40.80
2018-06-15T12:42:24.792Z,40.90
2018-06-15T12:43:27.109Z,38.50
2018-06-15T12:44:29.468Z,39.60
2018-06-15T12:45:31.762Z,39.10
2018-06-15T12:46:34.115Z,39.90
2018-06-15T12:47:36.439Z,38.70
2018-06-15T12:48:38.836Z,38.30
2018-06-15T12:49:41.204Z,38.80
2018-06-15T12:50:43.531Z,39.40
2018-06-15T12:51:45.857Z,39.50
2018-06-15T12:52:48.209Z,38.90
2018-06-15T12:53:50.559Z,39.40
2018-06-15T12:54:52.875Z,39.10
2018-06-15T12:55:55.208Z,39.80
2018-06-15T12:56:57.599Z,39.50
2018-06-15T12:59:02.239Z,38.60
2018-06-15T13:00:04.675Z,38.10
2018-06-15T13:01:07.062Z,38.40
2018-06-15T13:02:09.458Z,38.00
2018-06-15T13:03:11.874Z,38.60
2018-06-15T13:04:14.235Z,39.00
2018-06-15T13:05:16.511Z,38.80
2018-06-15T13:07:21.155Z,38.90
2018-06-15T13:08:23.447Z,38.80
2018-06-15T13:09:25.885Z,38.90
2018-06-15T13:10:28.297Z,38.80
2018-06-15T13:11:30.638Z,39.60
2018-06-15T13:12:32.953Z,39.80
2018-06-15T13:13:35.264Z,40.20
2018-06-15T13:14:37.640Z,40.40
2018-06-15T13:15:40.051Z,40.80
2018-06-15T13:16:42.454Z,40.20
2018-06-15T13:17:44.816Z,40.30
2018-06-15T13:18:47.267Z,40.00
2018-06-15T13:19:49.657Z,40.40
2018-06-15T13:20:51.965Z,40.10
2018-06-15T13:21:54.519Z,40.20
2018-06-15T13:22:56.832Z,40.40
2018-06-15T13:23:59.113Z,40.00
2018-06-15T13:25:01.463Z,40.00
2018-06-15T13:26:04.112Z,39.80
2018-06-15T13:27:06.407Z,39.90
2018-06-15T13:28:08.797Z,40.00
2018-06-15T13:30:13.382Z,39.50
2018-06-15T13:31:15.642Z,39.40
2018-06-15T13:32:18.809Z,39.30
2018-06-15T13:33:21.541Z,39.30
2018-06-15T13:34:23.802Z,39.20
2018-06-15T13:35:26.103Z,38.80
2018-06-15T13:36:28.446Z,38.60
2018-06-15T13:37:30.698Z,38.80
2018-06-15T13:38:32.946Z,38.80
2018-06-15T13:39:35.233Z,39.30
2018-06-15T13:40:37.446Z,39.00
2018-06-15T13:42:42.177Z,39.90
2018-06-15T13:44:46.644Z,39.00
2018-06-15T13:45:48.908Z,38.70
2018-06-15T13:46:51.207Z,38.60
2018-06-15T13:47:53.522Z,38.50
2018-06-15T13:48:55.794Z,38.40
2018-06-15T13:49:58.042Z,38.70
2018-06-15T13:51:00.358Z,38.80
2018-06-15T13:52:02.622Z,39.10
2018-06-15T13:53:04.870Z,38.60
2018-06-15T13:55:09.447Z,38.60
2018-06-15T13:56:11.763Z,38.80
2018-06-15T13:57:14.033Z,38.60
2018-06-15T13:59:18.601Z,38.80
2018-06-15T14:00:20.978Z,39.20
2018-06-15T14:01:23.346Z,39.30
2018-06-15T14:02:25.562Z,39.20
2018-06-15T14:03:27.814Z,39.10
2018-06-15T14:04:30.052Z,39.00
2018-06-15T14:05:32.278Z,39.50
2018-06-15T14:06:34.517Z,40.30
2018-06-15T14:07:36.765Z,40.00
2018-06-15T14:08:39.123Z,39.80
2018-06-15T14:09:41.596Z,39.70
2018-06-15T14:10:43.826Z,40.10
2018-06-15T14:11:46.082Z,40.10
2018-06-15T14:12:48.343Z,41.10
2018-06-15T14:13:50.740Z,41.50
2018-06-15T14:14:52.955Z,41.20
2018-06-15T14:15:55.234Z,40.90
2018-06-15T14:16:57.507Z,40.60
2018-06-15T14:17:59.819Z,40.20
2018-06-15T14:19:02.080Z,40.50
2018-06-15T14:21:06.702Z,41.00
2018-06-15T14:22:08.993Z,40.70